sensor_id;sensor_type;location;lat;lon;timestamp;P1;durP1;ratioP1;P2;durP2;ratioP2
78866;SDS011;68222;0.000;0.000;2023-02-26T21:13:49;1.05;;;0.90;;
78866;SDS011;68222;0.000;0.000;2023-02-26T21:16:15;2.08;;;1.27;;
78866;SDS011;68222;0.000;0.000;2023-02-26T21:26:48;4.68;;;1.33;;
78866;SDS011;68222;0.000;0.000;2023-02-26T21:30:50;2.70;;;1.40;;
78866;SDS011;68222;0.000;0.000;2023-02-26T21:33:17;2.65;;;0.90;;
78866;SDS011;68222;0.000;0.000;2023-02-26T21:35:47;2.55;;;1.38;;
78866;SDS011;68222;0.000;0.000;2023-02-26T21:38:13;1.45;;;1.20;;
78866;SDS011;68222;0.000;0.000;2023-02-26T21:40:39;2.28;;;1.05;;
78866;SDS011;68222;0.000;0.000;2023-02-26T21:43:05;2.03;;;0.80;;
78866;SDS011;68222;0.000;0.000;2023-02-26T21:45:32;1.20;;;0.70;;
78866;SDS011;68222;0.000;0.000;2023-02-26T21:48:00;2.42;;;1.10;;
78866;SDS011;68222;0.000;0.000;2023-02-26T21:50:26;2.10;;;1.10;;
78866;SDS011;68222;0.000;0.000;2023-02-26T21:52:52;1.25;;;0.80;;
78866;SDS011;68222;0.000;0.000;2023-02-26T21:55:18;2.50;;;0.85;;
78866;SDS011;68222;0.000;0.000;2023-02-26T21:57:44;0.70;;;0.70;;
78866;SDS011;68222;0.000;0.000;2023-02-26T22:00:10;1.10;;;0.88;;
78866;SDS011;68222;0.000;0.000;2023-02-26T22:02:36;0.95;;;0.68;;
78866;SDS011;68222;0.000;0.000;2023-02-26T22:05:02;1.98;;;0.70;;
78866;SDS011;68222;0.000;0.000;2023-02-26T22:07:29;1.30;;;0.90;;
78866;SDS011;68222;0.000;0.000;2023-02-26T22:09:55;0.82;;;0.80;;
78866;SDS011;68222;0.000;0.000;2023-02-26T22:12:21;1.63;;;0.90;;
78866;SDS011;68222;0.000;0.000;2023-02-26T22:14:47;2.83;;;0.60;;
78866;SDS011;68222;0.000;0.000;2023-02-26T22:17:13;3.55;;;0.90;;
78866;SDS011;68222;0.000;0.000;2023-02-26T22:19:39;1.05;;;0.80;;
78866;SDS011;68222;0.000;0.000;2023-02-26T22:22:06;1.58;;;0.93;;
78866;SDS011;68222;0.000;0.000;2023-02-26T22:24:33;1.58;;;0.88;;
78866;SDS011;68222;0.000;0.000;2023-02-26T22:26:59;0.98;;;0.80;;
78866;SDS011;68222;0.000;0.000;2023-02-26T22:29:25;2.25;;;0.88;;
78866;SDS011;68222;0.000;0.000;2023-02-26T22:31:51;1.40;;;0.85;;
78866;SDS011;68222;0.000;0.000;2023-02-26T22:34:18;1.42;;;0.90;;
78866;SDS011;68222;0.000;0.000;2023-02-26T22:36:44;2.65;;;0.80;;
78866;SDS011;68222;0.000;0.000;2023-02-26T22:39:10;2.80;;;0.90;;
78866;SDS011;68222;0.000;0.000;2023-02-26T22:41:37;2.97;;;0.90;;
78866;SDS011;68222;0.000;0.000;2023-02-26T22:44:03;1.77;;;0.70;;
78866;SDS011;68222;0.000;0.000;2023-02-26T22:46:29;2.45;;;0.82;;
78866;SDS011;68222;0.000;0.000;2023-02-26T22:48:56;1.60;;;0.80;;
78866;SDS011;68222;0.000;0.000;2023-02-26T22:51:22;0.95;;;0.68;;
78866;SDS011;68222;0.000;0.000;2023-02-26T22:53:48;0.75;;;0.60;;
78866;SDS011;68222;0.000;0.000;2023-02-26T22:56:14;1.70;;;0.70;;
78866;SDS011;68222;0.000;0.000;2023-02-26T22:58:41;0.90;;;0.70;;
78866;SDS011;68222;0.000;0.000;2023-02-26T23:01:07;1.90;;;0.75;;
78866;SDS011;68222;0.000;0.000;2023-02-26T23:03:33;1.35;;;0.90;;
78866;SDS011;68222;0.000;0.000;2023-02-26T23:05:59;3.25;;;0.80;;
78866;SDS011;68222;0.000;0.000;2023-02-26T23:08:26;2.10;;;0.60;;
78866;SDS011;68222;0.000;0.000;2023-02-26T23:10:52;0.93;;;0.60;;
78866;SDS011;68222;0.000;0.000;2023-02-26T23:13:19;0.80;;;0.60;;
78866;SDS011;68222;0.000;0.000;2023-02-26T23:15:45;0.95;;;0.80;;
78866;SDS011;68222;0.000;0.000;2023-02-26T23:18:11;1.60;;;0.60;;
78866;SDS011;68222;0.000;0.000;2023-02-26T23:20:37;1.38;;;0.73;;
78866;SDS011;68222;0.000;0.000;2023-02-26T23:23:03;2.33;;;0.88;;
78866;SDS011;68222;0.000;0.000;2023-02-26T23:25:30;1.48;;;0.60;;
78866;SDS011;68222;0.000;0.000;2023-02-26T23:27:56;1.30;;;0.50;;
78866;SDS011;68222;0.000;0.000;2023-02-26T23:30:22;1.05;;;0.73;;
78866;SDS011;68222;0.000;0.000;2023-02-26T23:32:49;0.85;;;0.70;;
78866;SDS011;68222;0.000;0.000;2023-02-26T23:35:15;1.73;;;0.60;;
78866;SDS011;68222;0.000;0.000;2023-02-26T23:37:41;1.33;;;0.60;;
78866;SDS011;68222;0.000;0.000;2023-02-26T23:40:08;1.05;;;0.60;;
78866;SDS011;68222;0.000;0.000;2023-02-26T23:42:34;2.97;;;0.70;;
78866;SDS011;68222;0.000;0.000;2023-02-26T23:45:00;1.83;;;0.50;;
78866;SDS011;68222;0.000;0.000;2023-02-26T23:47:26;2.78;;;0.50;;
78866;SDS011;68222;0.000;0.000;2023-02-26T23:49:52;0.82;;;0.70;;
78866;SDS011;68222;0.000;0.000;2023-02-26T23:52:18;1.20;;;0.50;;
78866;SDS011;68222;0.000;0.000;2023-02-26T23:54:44;1.13;;;0.70;;
78866;SDS011;68222;0.000;0.000;2023-02-26T23:57:10;0.80;;;0.60;;
78866;SDS011;68222;0.000;0.000;2023-02-26T23:59:36;1.10;;;0.60;;
